IFJ weather

Ísafjörður Airport
Ísafjörður, Westfjords, Iceland

Public forecast

Using degrees Celsius for public forecast. Weather courtesy of forecast.io.

Current aviation weather report (METAR) for Ísafjörður Airport

Report is more than 2 hours old.

Retrieved 2020/07/10 16:46 UTC (5 hours ago):

BIIS 101646Z 03008KT 9999 BKN035 10/05 Q1013

Closest aviation forecast (TAF) to Ísafjörður Airport

Closest forecast is Reykjavik Airport, 119.6 nm (221.6 km) SSE. Retrieved 2020/07/10 21:03 UTC (22 minutes ago):

TAF BIRK 101959Z 1021/1121 24008KT 9999 FEW020 OVC028 TX12/1115Z TN10/1106Z BECMG 1022/1100 OVC012 TEMPO 1100/1113 3000 DZ BR OVC006 PROB40 TEMPO 1113/1121 4000 DZ BR OVC008